createdAt,value
2019-02-05T00:00:57.174Z,1017.10
2019-02-05T00:01:58.035Z,1017.17
2019-02-05T00:02:58.618Z,1017.11
2019-02-05T00:03:57.907Z,1017.12
2019-02-05T00:05:01.684Z,1017.12
2019-02-05T00:05:58.929Z,1017.15
2019-02-05T00:06:58.719Z,1017.14
2019-02-05T00:07:59.199Z,1017.11
2019-02-05T00:08:59.575Z,1017.08
2019-02-05T00:10:00.202Z,1017.08
2019-02-05T00:11:00.249Z,1017.12
2019-02-05T00:12:04.199Z,1017.05
2019-02-05T00:13:01.587Z,1017.09
2019-02-05T00:14:02.291Z,1017.03
2019-02-05T00:15:01.910Z,1017.09
2019-02-05T00:16:01.731Z,1017.10
2019-02-05T00:17:02.533Z,1017.02
2019-02-05T00:18:02.952Z,1016.98
2019-02-05T00:19:02.770Z,1016.94
2019-02-05T00:20:03.776Z,1016.99
2019-02-05T00:21:04.510Z,1016.96
2019-02-05T00:22:04.308Z,1017.01
2019-02-05T00:23:04.929Z,1017.05
2019-02-05T00:24:04.214Z,1017.05
2019-02-05T00:25:04.647Z,1017.08
2019-02-05T00:26:06.671Z,1017.04
2019-02-05T00:27:06.491Z,1017.08
2019-02-05T00:28:07.009Z,1017.08
2019-02-05T00:29:07.015Z,1017.04
2019-02-05T00:30:07.029Z,1017.05
2019-02-05T00:31:07.234Z,1017.02
2019-02-05T00:32:07.137Z,1017.13
2019-02-05T00:33:07.658Z,1017.11
2019-02-05T00:34:07.663Z,1017.19
2019-02-05T00:35:07.676Z,1017.12
2019-02-05T00:36:08.195Z,1017.16
2019-02-05T00:37:07.887Z,1017.08
2019-02-05T00:38:08.101Z,1017.06
2019-02-05T00:39:08.402Z,1017.03
2019-02-05T00:40:08.633Z,1017.07
2019-02-05T00:41:08.835Z,1017.04
2019-02-05T00:42:08.911Z,1017.01
2019-02-05T00:43:09.256Z,1017.02
2019-02-05T00:44:09.475Z,1017.09
2019-02-05T00:45:09.571Z,1017.15
2019-02-05T00:46:09.586Z,1017.14
2019-02-05T00:47:10.106Z,1017.15
2019-02-05T00:48:09.918Z,1017.16
2019-02-05T00:49:10.419Z,1017.11
2019-02-05T00:50:10.338Z,1017.20
2019-02-05T00:51:10.391Z,1017.08
2019-02-05T00:52:10.858Z,1017.16
2019-02-05T00:53:10.942Z,1017.08
2019-02-05T00:54:11.008Z,1017.03
2019-02-05T00:55:11.166Z,1017.11
2019-02-05T00:56:17.737Z,1017.13
2019-02-05T00:57:11.453Z,1017.13
2019-02-05T00:58:12.836Z,1017.11
2019-02-05T00:59:12.183Z,1017.17
2019-02-05T01:00:13.354Z,1017.09
2019-02-05T01:01:15.438Z,1017.14
2019-02-05T01:02:13.580Z,1017.12
2019-02-05T01:03:13.493Z,1017.04
2019-02-05T01:04:14.077Z,1017.04
2019-02-05T01:05:14.620Z,1016.96
2019-02-05T01:06:14.093Z,1016.98
2019-02-05T01:07:14.810Z,1016.96
2019-02-05T01:08:14.561Z,1016.92
2019-02-05T01:09:15.055Z,1017.05
2019-02-05T01:10:15.784Z,1016.96
2019-02-05T01:11:15.643Z,1016.96
2019-02-05T01:12:15.934Z,1016.84
2019-02-05T01:13:16.271Z,1016.86
2019-02-05T01:14:16.878Z,1016.90
2019-02-05T01:15:16.642Z,1016.80
2019-02-05T01:16:17.008Z,1016.90
2019-02-05T01:17:17.318Z,1016.81
2019-02-05T01:18:17.870Z,1016.91
2019-02-05T01:19:18.160Z,1016.88
2019-02-05T01:20:18.458Z,1016.88
2019-02-05T01:21:18.892Z,1016.97
2019-02-05T01:22:19.194Z,1016.88
2019-02-05T01:23:19.511Z,1016.91
2019-02-05T01:24:20.377Z,1016.98
2019-02-05T01:25:21.322Z,1016.98
2019-02-05T01:26:28.870Z,1016.88
2019-02-05T01:27:22.248Z,1016.98
2019-02-05T01:29:22.253Z,1017.00
2019-02-05T01:30:22.774Z,1017.00
2019-02-05T01:31:22.524Z,1017.02
2019-02-05T01:32:22.786Z,1017.01
2019-02-05T01:33:23.100Z,1017.02
2019-02-05T01:34:23.412Z,1017.04
2019-02-05T01:35:23.520Z,1017.03
2019-02-05T01:36:24.100Z,1016.98
2019-02-05T01:37:24.151Z,1017.07
2019-02-05T01:38:24.262Z,1017.07
2019-02-05T01:39:24.474Z,1017.08
2019-02-05T01:40:24.685Z,1016.97
2019-02-05T01:41:24.893Z,1017.05
2019-02-05T01:42:24.973Z,1016.97
2019-02-05T01:43:25.113Z,1016.96
2019-02-05T01:44:25.410Z,1017.01
2019-02-05T01:45:25.216Z,1016.95
2019-02-05T01:46:25.655Z,1017.01
2019-02-05T01:47:25.872Z,1016.99
2019-02-05T01:48:25.964Z,1016.98
2019-02-05T01:49:26.299Z,1017.01
2019-02-05T01:50:26.095Z,1017.01
2019-02-05T01:51:26.491Z,1016.88
2019-02-05T01:52:27.528Z,1016.94
2019-02-05T01:53:27.008Z,1016.90
2019-02-05T01:54:27.418Z,1016.89
2019-02-05T01:55:27.793Z,1016.91
2019-02-05T01:56:28.173Z,1016.95
2019-02-05T01:57:28.595Z,1016.97
2019-02-05T01:58:29.204Z,1016.93
2019-02-05T01:59:29.580Z,1016.96
2019-02-05T02:00:30.827Z,1016.86
2019-02-05T02:01:29.781Z,1016.89
2019-02-05T02:02:29.604Z,1016.85
2019-02-05T02:03:30.670Z,1016.83
2019-02-05T02:04:31.019Z,1016.76
2019-02-05T02:05:30.395Z,1016.75
2019-02-05T02:06:30.754Z,1016.77
2019-02-05T02:07:31.618Z,1016.72
2019-02-05T02:08:31.841Z,1016.75
2019-02-05T02:09:31.685Z,1016.71
2019-02-05T02:10:32.354Z,1016.81
2019-02-05T02:11:32.257Z,1016.76
2019-02-05T02:12:32.645Z,1016.67
2019-02-05T02:13:32.986Z,1016.69
2019-02-05T02:14:33.358Z,1016.63
2019-02-05T02:15:33.829Z,1016.64
2019-02-05T02:16:34.194Z,1016.61
2019-02-05T02:17:34.548Z,1016.56
2019-02-05T02:18:35.484Z,1016.64
2019-02-05T02:19:36.404Z,1016.68
2019-02-05T02:20:36.923Z,1016.64
2019-02-05T02:21:36.841Z,1016.59
2019-02-05T02:22:37.346Z,1016.56
2019-02-05T02:23:37.988Z,1016.59
2019-02-05T02:24:37.977Z,1016.61
2019-02-05T02:26:37.750Z,1016.55
2019-02-05T02:27:38.101Z,1016.62
2019-02-05T02:28:38.321Z,1016.58
2019-02-05T02:29:38.623Z,1016.56
2019-02-05T02:30:38.887Z,1016.49
2019-02-05T02:31:39.048Z,1016.50
2019-02-05T02:32:39.357Z,1016.43
2019-02-05T02:33:39.685Z,1016.42
2019-02-05T02:34:39.886Z,1016.50
2019-02-05T02:35:39.896Z,1016.51
2019-02-05T02:36:39.681Z,1016.53
2019-02-05T02:37:40.312Z,1016.52
2019-02-05T02:38:40.340Z,1016.54
2019-02-05T02:39:40.024Z,1016.59
2019-02-05T02:40:40.471Z,1016.57
2019-02-05T02:41:40.864Z,1016.63
2019-02-05T02:42:41.098Z,1016.64
2019-02-05T02:43:41.243Z,1016.57
2019-02-05T02:44:41.786Z,1016.58
2019-02-05T02:45:42.001Z,1016.70
2019-02-05T02:46:41.247Z,1016.70
2019-02-05T02:47:41.661Z,1016.76
2019-02-05T02:48:41.993Z,1016.79
2019-02-05T02:49:42.257Z,1016.69
2019-02-05T02:50:43.064Z,1016.70
2019-02-05T02:51:42.922Z,1016.66
2019-02-05T02:52:43.233Z,1016.70
2019-02-05T02:53:43.499Z,1016.80
2019-02-05T02:54:43.869Z,1016.89
2019-02-05T02:55:44.309Z,1016.88
2019-02-05T02:56:44.488Z,1016.91
2019-02-05T02:57:44.946Z,1016.85
2019-02-05T02:58:45.333Z,1016.86
2019-02-05T02:59:45.585Z,1016.85
2019-02-05T03:00:45.968Z,1016.80
2019-02-05T03:01:46.610Z,1016.76
2019-02-05T03:02:46.482Z,1016.69
2019-02-05T03:03:47.088Z,1016.74
2019-02-05T03:04:47.515Z,1016.84
2019-02-05T03:05:47.973Z,1016.89
2019-02-05T03:06:48.373Z,1016.83
2019-02-05T03:07:48.795Z,1016.82
2019-02-05T03:08:49.319Z,1016.78
2019-02-05T03:09:49.203Z,1016.82
2019-02-05T03:10:49.493Z,1016.70
2019-02-05T03:11:50.469Z,1016.83
2019-02-05T03:12:51.395Z,1016.77
2019-02-05T03:13:51.305Z,1016.70
2019-02-05T03:14:51.830Z,1016.66
2019-02-05T03:15:51.825Z,1016.70
2019-02-05T03:17:51.835Z,1016.76
2019-02-05T03:18:52.353Z,1016.75
2019-02-05T03:19:52.266Z,1016.78
2019-02-05T03:20:52.675Z,1016.78
2019-02-05T03:21:53.195Z,1016.80
2019-02-05T03:22:53.506Z,1016.86
2019-02-05T03:23:53.734Z,1016.78
2019-02-05T03:24:53.941Z,1016.85
2019-02-05T03:25:53.997Z,1016.80
2019-02-05T03:26:54.657Z,1016.85
2019-02-05T03:27:54.933Z,1016.80
2019-02-05T03:28:55.089Z,1016.85
2019-02-05T03:29:55.308Z,1016.78
2019-02-05T03:30:55.416Z,1016.81
2019-02-05T03:31:55.645Z,1016.94
2019-02-05T03:32:55.742Z,1016.89
2019-02-05T03:33:55.631Z,1016.91
2019-02-05T03:34:55.979Z,1016.92
2019-02-05T03:35:56.013Z,1016.84
2019-02-05T03:36:56.163Z,1016.83
2019-02-05T03:37:56.376Z,1016.84
2019-02-05T03:38:56.313Z,1016.80
2019-02-05T03:39:56.663Z,1016.85
2019-02-05T03:40:57.357Z,1016.79
2019-02-05T03:41:57.453Z,1016.78
2019-02-05T03:42:57.842Z,1016.79
2019-02-05T03:43:58.211Z,1016.85
2019-02-05T03:44:58.528Z,1016.82
2019-02-05T03:45:59.406Z,1016.80
2019-02-05T03:46:59.348Z,1016.68
2019-02-05T03:47:59.660Z,1016.69
2019-02-05T03:49:00.141Z,1016.65
2019-02-05T03:50:00.575Z,1016.69
2019-02-05T03:51:00.410Z,1016.67
2019-02-05T03:52:00.969Z,1016.63
2019-02-05T03:53:01.585Z,1016.72
2019-02-05T03:54:01.715Z,1016.57
2019-02-05T03:55:02.044Z,1016.71
2019-02-05T03:56:03.344Z,1016.74
2019-02-05T03:57:02.846Z,1016.68
2019-02-05T03:58:03.056Z,1016.71
2019-02-05T03:59:03.279Z,1016.73
2019-02-05T04:00:03.750Z,1016.77
2019-02-05T04:01:03.777Z,1016.72
2019-02-05T04:02:04.522Z,1016.72
2019-02-05T04:03:04.261Z,1016.79
2019-02-05T04:04:04.513Z,1016.81
2019-02-05T04:05:04.840Z,1016.76
2019-02-05T04:06:05.930Z,1016.81
2019-02-05T04:07:05.472Z,1016.78
2019-02-05T04:09:06.510Z,1016.82
2019-02-05T04:10:06.612Z,1016.78
2019-02-05T04:11:07.246Z,1016.92
2019-02-05T04:12:07.445Z,1016.85
2019-02-05T04:13:07.704Z,1016.95
2019-02-05T04:14:07.747Z,1016.94
2019-02-05T04:15:07.876Z,1016.90
2019-02-05T04:16:07.955Z,1016.84
2019-02-05T04:17:08.391Z,1016.85
2019-02-05T04:18:08.321Z,1016.82
2019-02-05T04:19:08.312Z,1016.81
2019-02-05T04:20:08.731Z,1016.73
2019-02-05T04:21:08.946Z,1016.72
2019-02-05T04:22:09.018Z,1016.73
2019-02-05T04:23:09.260Z,1016.80
2019-02-05T04:24:09.676Z,1016.79
2019-02-05T04:25:09.678Z,1016.77
2019-02-05T04:26:09.841Z,1016.75
2019-02-05T04:27:10.211Z,1016.77
2019-02-05T04:28:10.109Z,1016.70
2019-02-05T04:29:10.490Z,1016.74
2019-02-05T04:30:10.634Z,1016.76
2019-02-05T04:31:11.027Z,1016.74
2019-02-05T04:32:11.274Z,1016.73
2019-02-05T04:35:11.352Z,1016.81
2019-02-05T04:36:11.104Z,1016.77
2019-02-05T04:37:11.790Z,1016.86
2019-02-05T04:38:11.611Z,1016.74
2019-02-05T04:39:11.391Z,1016.74
2019-02-05T04:40:12.441Z,1016.84
2019-02-05T04:41:12.254Z,1016.80
2019-02-05T04:42:12.557Z,1016.73
2019-02-05T04:43:12.694Z,1016.80
2019-02-05T04:44:12.934Z,1016.74
2019-02-05T04:45:14.011Z,1016.81
2019-02-05T04:46:13.578Z,1016.78
2019-02-05T04:47:13.735Z,1016.79
2019-02-05T04:48:13.938Z,1016.81
2019-02-05T04:49:14.105Z,1016.81
2019-02-05T04:50:14.668Z,1016.71
2019-02-05T04:51:14.970Z,1016.76
2019-02-05T04:52:15.503Z,1016.80
2019-02-05T04:53:16.006Z,1016.75
2019-02-05T04:54:15.572Z,1016.78
2019-02-05T04:55:16.433Z,1016.80
2019-02-05T04:56:16.029Z,1016.78
2019-02-05T04:57:16.349Z,1016.77
2019-02-05T04:58:16.518Z,1016.78
2019-02-05T04:59:17.219Z,1016.80
2019-02-05T05:00:18.057Z,1016.83
2019-02-05T05:01:17.636Z,1016.85
2019-02-05T05:02:18.329Z,1016.74
2019-02-05T05:03:19.049Z,1016.78
2019-02-05T05:04:19.163Z,1016.85
2019-02-05T05:05:19.569Z,1016.78
2019-02-05T05:06:19.368Z,1016.78
2019-02-05T05:07:19.545Z,1016.74
2019-02-05T05:08:20.304Z,1016.80
2019-02-05T05:09:20.722Z,1016.80
2019-02-05T05:10:21.339Z,1016.85
2019-02-05T05:11:21.756Z,1016.79
2019-02-05T05:12:22.290Z,1016.81
2019-02-05T05:13:22.387Z,1016.74
2019-02-05T05:14:22.703Z,1016.76
2019-02-05T05:15:23.157Z,1016.81
2019-02-05T05:16:23.323Z,1016.80
2019-02-05T05:17:23.655Z,1016.72
2019-02-05T05:18:23.851Z,1016.78
2019-02-05T05:19:24.019Z,1016.75
2019-02-05T05:20:24.271Z,1016.78
2019-02-05T05:21:24.285Z,1016.81
2019-02-05T05:22:24.283Z,1016.83
2019-02-05T05:23:24.472Z,1016.79
2019-02-05T05:24:25.021Z,1016.84
2019-02-05T05:25:24.818Z,1016.92
2019-02-05T05:26:25.027Z,1016.85
2019-02-05T05:27:25.351Z,1016.90
2019-02-05T05:28:25.451Z,1016.97
2019-02-05T05:29:25.459Z,1016.98
2019-02-05T05:30:25.851Z,1016.90
2019-02-05T05:31:25.838Z,1016.85
2019-02-05T05:32:26.025Z,1016.92
2019-02-05T05:33:26.237Z,1016.94
2019-02-05T05:34:26.171Z,1016.93
2019-02-05T05:35:26.486Z,1016.94
2019-02-05T05:37:26.843Z,1016.95
2019-02-05T05:38:27.640Z,1016.85
2019-02-05T05:39:27.544Z,1016.90
2019-02-05T05:40:27.986Z,1016.94
2019-02-05T05:41:28.368Z,1016.91
2019-02-05T05:42:29.014Z,1016.92
2019-02-05T05:43:29.142Z,1016.94
2019-02-05T05:44:28.996Z,1016.90
2019-02-05T05:45:29.316Z,1016.87
2019-02-05T05:46:29.620Z,1016.92
2019-02-05T05:47:30.181Z,1016.95
2019-02-05T05:48:30.815Z,1016.92
2019-02-05T05:49:30.916Z,1016.94
2019-02-05T05:50:30.413Z,1017.01
2019-02-05T05:51:30.802Z,1017.02
2019-02-05T05:52:31.280Z,1016.90
2019-02-05T05:53:31.622Z,1017.02
2019-02-05T05:54:32.175Z,1016.95
2019-02-05T05:55:32.082Z,1017.00
2019-02-05T05:56:32.862Z,1016.97
2019-02-05T05:57:32.668Z,1016.96
2019-02-05T05:58:33.049Z,1016.99
2019-02-05T05:59:33.310Z,1017.00
2019-02-05T06:00:33.989Z,1017.00
2019-02-05T06:01:34.099Z,1017.03
2019-02-05T06:02:34.194Z,1017.00
2019-02-05T06:03:34.055Z,1017.07
2019-02-05T06:04:34.379Z,1017.06
2019-02-05T06:05:34.844Z,1017.07
2019-02-05T06:06:36.281Z,1017.10
2019-02-05T06:07:36.697Z,1017.09
2019-02-05T06:08:37.023Z,1017.11
2019-02-05T06:09:37.537Z,1017.08
2019-02-05T06:10:37.435Z,1017.00
2019-02-05T06:11:37.712Z,1017.01
2019-02-05T06:12:38.070Z,1017.08
2019-02-05T06:13:38.296Z,1017.06
2019-02-05T06:14:38.386Z,1017.10
2019-02-05T06:15:38.599Z,1017.09
2019-02-05T06:16:39.218Z,1017.13
2019-02-05T06:17:39.119Z,1017.09
2019-02-05T06:18:39.375Z,1017.07
2019-02-05T06:19:39.470Z,1017.06
2019-02-05T06:20:39.755Z,1017.10
2019-02-05T06:22:39.772Z,1017.07
2019-02-05T06:23:41.000Z,1017.12
2019-02-05T06:24:40.460Z,1016.98
2019-02-05T06:25:40.798Z,1017.13
2019-02-05T06:26:40.929Z,1017.04
2019-02-05T06:27:41.276Z,1017.05
2019-02-05T06:28:41.100Z,1017.11
2019-02-05T06:29:41.403Z,1017.18
2019-02-05T06:30:41.694Z,1017.19
2019-02-05T06:31:42.490Z,1017.20
2019-02-05T06:32:42.221Z,1017.19
2019-02-05T06:33:42.590Z,1017.11
2019-02-05T06:34:43.193Z,1017.19
2019-02-05T06:35:42.980Z,1017.20
2019-02-05T06:36:43.289Z,1017.26
2019-02-05T06:37:43.591Z,1017.24
2019-02-05T06:38:44.901Z,1017.22
2019-02-05T06:39:44.362Z,1017.23
2019-02-05T06:40:44.613Z,1017.25
2019-02-05T06:41:45.328Z,1017.34
2019-02-05T06:42:45.248Z,1017.34
2019-02-05T06:43:45.067Z,1017.41
2019-02-05T06:44:45.548Z,1017.29
2019-02-05T06:45:46.160Z,1017.31
2019-02-05T06:46:46.184Z,1017.34
2019-02-05T06:47:46.011Z,1017.39
2019-02-05T06:48:46.319Z,1017.39
2019-02-05T06:49:46.643Z,1017.41
2019-02-05T06:50:47.071Z,1017.40
2019-02-05T06:51:47.741Z,1017.42
2019-02-05T06:52:47.620Z,1017.42
2019-02-05T06:53:48.465Z,1017.38
2019-02-05T06:54:48.691Z,1017.32
2019-02-05T06:55:48.649Z,1017.32
2019-02-05T06:56:49.100Z,1017.39
2019-02-05T06:57:48.948Z,1017.46
2019-02-05T06:58:49.176Z,1017.35
2019-02-05T06:59:49.458Z,1017.29
2019-02-05T07:00:49.846Z,1017.34
2019-02-05T07:01:50.981Z,1017.38
2019-02-05T07:02:53.006Z,1017.37
2019-02-05T07:03:51.711Z,1017.40
2019-02-05T07:04:52.035Z,1017.38
2019-02-05T07:05:52.435Z,1017.44
2019-02-05T07:06:52.749Z,1017.43
2019-02-05T07:07:52.860Z,1017.33
2019-02-05T07:08:53.073Z,1017.28
2019-02-05T07:09:53.087Z,1017.36
2019-02-05T07:10:53.083Z,1017.35
2019-02-05T07:11:53.805Z,1017.41
2019-02-05T07:12:53.806Z,1017.35
2019-02-05T07:13:54.332Z,1017.45
2019-02-05T07:14:53.833Z,1017.54
2019-02-05T07:15:54.256Z,1017.47
2019-02-05T07:16:55.190Z,1017.54
2019-02-05T07:17:55.379Z,1017.55
2019-02-05T07:18:55.383Z,1017.51
2019-02-05T07:19:55.726Z,1017.58
2019-02-05T07:20:56.233Z,1017.60
2019-02-05T07:21:56.247Z,1017.59
2019-02-05T07:22:56.164Z,1017.65
2019-02-05T07:23:56.201Z,1017.73
2019-02-05T07:24:56.306Z,1017.66
2019-02-05T07:25:56.971Z,1017.71
2019-02-05T07:26:56.563Z,1017.69
2019-02-05T07:27:57.287Z,1017.72
2019-02-05T07:28:59.010Z,1017.62
2019-02-05T07:29:56.861Z,1017.71
2019-02-05T07:30:57.516Z,1017.66
2019-02-05T07:31:57.928Z,1017.70
2019-02-05T07:32:57.819Z,1017.69
2019-02-05T07:33:58.139Z,1017.75
2019-02-05T07:34:58.771Z,1017.69
2019-02-05T07:35:58.633Z,1017.70
2019-02-05T07:36:59.091Z,1017.71
2019-02-05T07:37:59.563Z,1017.70
2019-02-05T07:38:59.886Z,1017.70
2019-02-05T07:40:00.405Z,1017.71
2019-02-05T07:41:00.394Z,1017.72
2019-02-05T07:42:00.727Z,1017.73
2019-02-05T07:43:01.722Z,1017.76
2019-02-05T07:44:02.007Z,1017.76
2019-02-05T07:45:02.315Z,1017.80
2019-02-05T07:46:02.432Z,1017.83
2019-02-05T07:47:01.757Z,1017.84
2019-02-05T07:48:02.951Z,1017.85
2019-02-05T07:49:02.835Z,1017.87
2019-02-05T07:50:03.577Z,1017.91
2019-02-05T07:51:03.999Z,1017.92
2019-02-05T07:52:03.693Z,1017.92
2019-02-05T07:53:03.572Z,1017.92
2019-02-05T07:54:04.117Z,1017.93
2019-02-05T07:55:04.326Z,1017.94
2019-02-05T07:56:04.228Z,1017.96
2019-02-05T07:58:04.665Z,1017.99
2019-02-05T07:59:10.241Z,1018.00
2019-02-05T08:00:06.305Z,1018.02
2019-02-05T08:01:06.217Z,1018.03
2019-02-05T08:02:06.526Z,1018.05
2019-02-05T08:03:06.937Z,1018.08
2019-02-05T08:04:07.357Z,1018.08
2019-02-05T08:05:07.675Z,1018.08
2019-02-05T08:06:07.942Z,1018.09
2019-02-05T08:07:08.295Z,1018.10
2019-02-05T08:08:08.568Z,1018.12
2019-02-05T08:09:08.717Z,1018.13
2019-02-05T08:10:08.825Z,1018.12
2019-02-05T08:11:09.041Z,1018.15
2019-02-05T08:12:09.357Z,1018.15
2019-02-05T08:13:09.766Z,1018.17
2019-02-05T08:14:09.886Z,1018.18
2019-02-05T08:15:10.163Z,1018.18
2019-02-05T08:16:10.303Z,1018.20
2019-02-05T08:17:10.568Z,1018.22
2019-02-05T08:18:10.504Z,1018.21
2019-02-05T08:19:10.801Z,1018.22
2019-02-05T08:20:10.866Z,1018.24
2019-02-05T08:21:11.253Z,1018.22
2019-02-05T08:22:11.490Z,1018.21
2019-02-05T08:23:11.892Z,1018.21
2019-02-05T08:24:11.740Z,1018.19
2019-02-05T08:25:12.154Z,1018.19
2019-02-05T08:26:12.459Z,1018.19
2019-02-05T08:27:13.342Z,1018.18
2019-02-05T08:28:13.353Z,1018.20
2019-02-05T08:29:21.298Z,1018.18
2019-02-05T08:30:13.525Z,1018.17
2019-02-05T08:31:13.612Z,1018.17
2019-02-05T08:32:14.388Z,1018.16
2019-02-05T08:33:14.273Z,1018.17
2019-02-05T08:34:14.626Z,1018.18
2019-02-05T08:35:15.750Z,1018.18
2019-02-05T08:36:15.096Z,1018.19
2019-02-05T08:37:15.399Z,1018.19
2019-02-05T08:38:16.025Z,1018.19
2019-02-05T08:39:17.975Z,1018.21
2019-02-05T08:40:17.115Z,1018.21
2019-02-05T08:41:17.002Z,1018.23
2019-02-05T08:42:17.302Z,1018.24
2019-02-05T08:43:17.645Z,1018.24
2019-02-05T08:44:17.658Z,1018.26
2019-02-05T08:45:17.557Z,1018.27
2019-02-05T08:46:18.615Z,1018.24
2019-02-05T08:47:18.433Z,1018.23
2019-02-05T08:48:18.697Z,1018.25
2019-02-05T08:49:19.057Z,1018.23
2019-02-05T08:50:19.361Z,1018.22
2019-02-05T08:51:19.851Z,1018.23
2019-02-05T08:52:21.386Z,1018.23
2019-02-05T08:53:21.196Z,1018.24
2019-02-05T08:54:21.709Z,1018.22
2019-02-05T08:55:21.613Z,1018.23
2019-02-05T08:56:22.132Z,1018.21
2019-02-05T08:57:22.036Z,1018.20
2019-02-05T08:58:30.558Z,1018.21
2019-02-05T08:59:22.356Z,1018.22
2019-02-05T09:00:22.875Z,1018.20
2019-02-05T09:01:22.933Z,1018.21
2019-02-05T09:02:23.144Z,1018.23
2019-02-05T09:03:23.202Z,1018.21
2019-02-05T09:04:23.523Z,1018.21
2019-02-05T09:05:23.724Z,1018.22
2019-02-05T09:06:23.735Z,1018.20
2019-02-05T09:07:23.722Z,1018.19
2019-02-05T09:08:24.359Z,1018.20
2019-02-05T09:09:24.485Z,1018.18
2019-02-05T09:10:24.581Z,1018.18
2019-02-05T09:11:24.480Z,1018.17
2019-02-05T09:12:24.709Z,1018.16
2019-02-05T09:13:25.319Z,1018.18
2019-02-05T09:14:25.014Z,1018.19
2019-02-05T09:15:29.391Z,1018.21
2019-02-05T09:16:25.320Z,1018.23
2019-02-05T09:17:25.486Z,1018.24
2019-02-05T09:18:25.916Z,1018.27
2019-02-05T09:19:26.729Z,1018.30
2019-02-05T09:20:26.687Z,1018.30
2019-02-05T09:21:27.014Z,1018.31
2019-02-05T09:22:27.118Z,1018.31
2019-02-05T09:23:27.315Z,1018.31
2019-02-05T09:24:28.073Z,1018.31
2019-02-05T09:25:27.386Z,1018.33
2019-02-05T09:27:27.859Z,1018.32
2019-02-05T09:28:28.187Z,1018.33
2019-02-05T09:29:33.475Z,1018.35
2019-02-05T09:30:28.857Z,1018.35
2019-02-05T09:31:29.260Z,1018.37
2019-02-05T09:32:35.003Z,1018.40
2019-02-05T09:33:30.157Z,1018.40
2019-02-05T09:34:30.030Z,1018.40
2019-02-05T09:35:30.319Z,1018.42
2019-02-05T09:36:30.624Z,1018.42
2019-02-05T09:37:31.091Z,1018.44
2019-02-05T09:38:31.724Z,1018.44
2019-02-05T09:39:31.583Z,1018.46
2019-02-05T09:40:31.954Z,1018.47
2019-02-05T09:41:32.565Z,1018.47
2019-02-05T09:42:32.679Z,1018.49
2019-02-05T09:43:32.786Z,1018.51
2019-02-05T09:44:32.895Z,1018.54
2019-02-05T09:45:32.999Z,1018.56
2019-02-05T09:46:32.905Z,1018.58
2019-02-05T09:47:33.461Z,1018.59
2019-02-05T09:48:33.278Z,1018.60
2019-02-05T09:49:33.859Z,1018.59
2019-02-05T09:50:44.220Z,1018.60
2019-02-05T09:51:34.575Z,1018.61
2019-02-05T09:52:34.425Z,1018.61
2019-02-05T09:53:34.900Z,1018.62
2019-02-05T09:54:36.345Z,1018.63
2019-02-05T09:55:36.752Z,1018.63
2019-02-05T09:56:37.268Z,1018.63
2019-02-05T09:57:37.277Z,1018.64
2019-02-05T09:58:37.280Z,1018.64
2019-02-05T09:59:45.115Z,1018.66
2019-02-05T10:00:38.115Z,1018.67
2019-02-05T10:01:38.645Z,1018.68
2019-02-05T10:02:38.636Z,1018.67
2019-02-05T10:03:38.844Z,1018.68
2019-02-05T10:04:38.866Z,1018.67
2019-02-05T10:05:38.762Z,1018.67
2019-02-05T10:06:39.472Z,1018.70
2019-02-05T10:07:39.597Z,1018.69
2019-02-05T10:08:39.599Z,1018.67
2019-02-05T10:09:40.128Z,1018.68
2019-02-05T10:10:40.544Z,1018.69
2019-02-05T10:11:40.324Z,1018.70
2019-02-05T10:12:40.606Z,1018.71
2019-02-05T10:13:40.767Z,1018.72
2019-02-05T10:14:40.816Z,1018.74
2019-02-05T10:15:41.070Z,1018.77
2019-02-05T10:16:41.019Z,1018.79
2019-02-05T10:17:41.339Z,1018.83
2019-02-05T10:18:41.661Z,1018.85
2019-02-05T10:19:41.977Z,1018.86
2019-02-05T10:20:42.286Z,1018.84
2019-02-05T10:21:42.597Z,1018.85
2019-02-05T10:22:42.920Z,1018.87
2019-02-05T10:23:43.794Z,1018.88
2019-02-05T10:24:43.648Z,1018.90
2019-02-05T10:25:43.959Z,1018.90
2019-02-05T10:26:44.259Z,1018.91
2019-02-05T10:27:44.575Z,1018.93
2019-02-05T10:28:44.900Z,1018.95
2019-02-05T10:29:56.570Z,1018.93
2019-02-05T10:30:45.472Z,1018.94
2019-02-05T10:31:46.565Z,1018.91
2019-02-05T10:32:45.899Z,1018.89
2019-02-05T10:33:54.977Z,1018.90
2019-02-05T10:34:46.567Z,1018.89
2019-02-05T10:35:46.977Z,1018.88
2019-02-05T10:36:47.769Z,1018.88
2019-02-05T10:37:47.620Z,1018.89
2019-02-05T10:38:47.659Z,1018.88
2019-02-05T10:39:48.295Z,1018.86
2019-02-05T10:40:48.166Z,1018.84
2019-02-05T10:41:48.429Z,1018.85
2019-02-05T10:42:48.981Z,1018.84
2019-02-05T10:43:49.132Z,1018.85
2019-02-05T10:44:49.507Z,1018.85
2019-02-05T10:45:50.400Z,1018.85
2019-02-05T10:46:51.422Z,1018.86
2019-02-05T10:47:51.424Z,1018.87
2019-02-05T10:48:51.020Z,1018.87
2019-02-05T10:49:51.335Z,1018.88
2019-02-05T10:50:51.862Z,1018.90
2019-02-05T10:51:51.964Z,1018.92
2019-02-05T10:52:52.074Z,1018.93
2019-02-05T10:53:52.078Z,1018.95
2019-02-05T10:54:52.088Z,1018.95
2019-02-05T10:55:51.996Z,1018.96
2019-02-05T10:56:52.510Z,1018.96
2019-02-05T10:57:52.312Z,1018.96
2019-02-05T10:58:52.934Z,1018.94
2019-02-05T10:59:54.487Z,1018.93
2019-02-05T11:00:53.362Z,1018.92
2019-02-05T11:01:53.238Z,1018.90
2019-02-05T11:02:53.777Z,1018.89
2019-02-05T11:03:53.580Z,1018.90
2019-02-05T11:04:53.685Z,1018.92
2019-02-05T11:05:53.893Z,1018.94
2019-02-05T11:06:54.315Z,1018.95
2019-02-05T11:07:54.097Z,1018.96
2019-02-05T11:08:54.532Z,1018.96
2019-02-05T11:09:55.050Z,1018.95
2019-02-05T11:10:55.072Z,1018.93
2019-02-05T11:11:54.738Z,1018.91
2019-02-05T11:12:55.243Z,1018.89
2019-02-05T11:13:55.431Z,1018.88
2019-02-05T11:14:55.733Z,1018.89
2019-02-05T11:15:55.769Z,1018.89
2019-02-05T11:16:56.138Z,1018.88
2019-02-05T11:17:57.048Z,1018.88
2019-02-05T11:18:56.748Z,1018.86
2019-02-05T11:19:56.668Z,1018.84
2019-02-05T11:20:57.300Z,1018.81
2019-02-05T11:21:57.184Z,1018.79
2019-02-05T11:22:57.447Z,1018.77
2019-02-05T11:23:57.758Z,1018.75
2019-02-05T11:24:58.519Z,1018.72
2019-02-05T11:25:58.396Z,1018.68
2019-02-05T11:26:58.693Z,1018.64
2019-02-05T11:27:59.365Z,1018.63
2019-02-05T11:28:59.240Z,1018.62
2019-02-05T11:29:59.653Z,1018.63
2019-02-05T11:30:59.955Z,1018.63
2019-02-05T11:32:00.286Z,1018.64
2019-02-05T11:33:01.171Z,1018.63
2019-02-05T11:34:01.135Z,1018.61
2019-02-05T11:35:01.531Z,1018.59
2019-02-05T11:36:01.615Z,1018.58
2019-02-05T11:37:02.396Z,1018.58
2019-02-05T11:38:02.810Z,1018.57
2019-02-05T11:39:03.635Z,1018.56
2019-02-05T11:40:03.618Z,1018.54
2019-02-05T11:41:03.433Z,1018.51
2019-02-05T11:42:04.270Z,1018.51
2019-02-05T11:43:04.117Z,1018.49
2019-02-05T11:45:04.910Z,1018.50
2019-02-05T11:46:04.444Z,1018.46
2019-02-05T11:47:05.238Z,1018.45
2019-02-05T11:48:05.846Z,1018.46
2019-02-05T11:49:06.260Z,1018.45
2019-02-05T11:50:06.266Z,1018.45
2019-02-05T11:51:06.787Z,1018.45
2019-02-05T11:52:09.720Z,1018.45
2019-02-05T11:53:07.208Z,1018.45
2019-02-05T11:54:07.726Z,1018.42
2019-02-05T11:55:07.635Z,1018.42
2019-02-05T11:56:07.849Z,1018.40
2019-02-05T11:57:08.061Z,1018.41
2019-02-05T11:58:08.577Z,1018.42
2019-02-05T11:59:08.578Z,1018.45
2019-02-05T12:00:08.675Z,1018.45
2019-02-05T12:01:09.196Z,1018.45
2019-02-05T12:02:09.632Z,1018.48
2019-02-05T12:03:09.527Z,1018.48
2019-02-05T12:04:09.385Z,1018.49
2019-02-05T12:05:10.388Z,1018.49
2019-02-05T12:06:10.466Z,1018.49
2019-02-05T12:07:10.589Z,1018.50
2019-02-05T12:08:10.511Z,1018.50
2019-02-05T12:09:10.648Z,1018.50
2019-02-05T12:10:10.836Z,1018.50
2019-02-05T12:11:10.953Z,1018.50
2019-02-05T12:12:10.854Z,1018.52
2019-02-05T12:13:11.238Z,1018.51
2019-02-05T12:14:11.637Z,1018.52
2019-02-05T12:15:12.502Z,1018.52
2019-02-05T12:16:12.444Z,1018.51
2019-02-05T12:17:12.733Z,1018.52
2019-02-05T12:18:13.045Z,1018.53
2019-02-05T12:19:13.366Z,1018.52
2019-02-05T12:20:14.085Z,1018.51